Time,TemperatureF,DewpointF,PressureIn,WindDirection,WindDirectionDegrees,WindSpeedMPH,WindSpeedGustMPH,Humidity,HourlyPrecipIn,Conditions,Clouds,dailyrainin,SoftwareType,DateUTC
2013-06-07 00:01:00,68.6,67.7,29.86,SSE,161,0.0,0.0,97,0.03,,---,0.00,VWS V14.01,2013-06-07 04:01:00,
2013-06-07 00:02:00,68.6,67.7,29.86,SSE,161,0.0,0.0,97,0.03,,---,0.00,VWS V14.01,2013-06-07 04:02:00,
2013-06-07 00:04:00,68.6,67.7,29.86,SSE,161,0.0,0.0,97,0.04,,---,0.01,VWS V14.01,2013-06-07 04:04:00,
2013-06-07 00:10:00,68.6,67.7,29.85,SSE,161,0.0,0.0,97,0.04,,---,0.01,VWS V14.01,2013-06-07 04:10:00,
2013-06-07 00:12:00,68.6,67.7,29.85,SSE,161,0.0,0.0,97,0.05,,---,0.02,VWS V14.01,2013-06-07 04:12:00,
2013-06-07 00:17:00,68.6,67.7,29.85,SSE,161,0.0,0.0,97,0.04,,---,0.02,VWS V14.01,2013-06-07 04:17:00,
2013-06-07 00:23:00,68.6,67.7,29.85,SSE,161,0.0,0.0,97,0.05,,---,0.03,VWS V14.01,2013-06-07 04:23:00,
2013-06-07 00:28:00,68.6,67.7,29.85,SSE,161,0.0,0.0,97,0.06,,---,0.04,VWS V14.01,2013-06-07 04:28:00,
2013-06-07 00:33:00,68.6,67.7,29.85,SSE,161,0.0,0.0,97,0.05,,---,0.04,VWS V14.01,2013-06-07 04:33:00,
2013-06-07 00:38:00,68.6,67.7,29.84,SSE,151,0.0,0.0,97,0.06,,---,0.05,VWS V14.01,2013-06-07 04:38:00,
2013-06-07 00:43:00,68.6,67.7,29.84,SSE,151,0.0,1.0,97,0.06,,---,0.05,VWS V14.01,2013-06-07 04:43:00,
2013-06-07 00:48:00,68.6,67.7,29.84,NE,44,0.0,2.0,97,0.06,,---,0.05,VWS V14.01,2013-06-07 04:48:00,
2013-06-07 00:54:00,68.6,67.7,29.84,NE,54,0.0,2.0,97,0.07,,---,0.06,VWS V14.01,2013-06-07 04:54:00,
2013-06-07 00:59:00,68.6,67.7,29.83,NE,54,0.0,2.0,97,0.07,,---,0.06,VWS V14.01,2013-06-07 04:59:00,
2013-06-07 01:04:00,68.6,67.7,29.83,NE,54,0.0,1.0,97,0.06,,---,0.06,VWS V14.01,2013-06-07 05:04:00,
2013-06-07 01:09:00,68.6,67.7,29.83,NE,54,0.0,1.0,97,0.06,,---,0.06,VWS V14.01,2013-06-07 05:09:00,
2013-06-07 01:14:00,68.6,67.7,29.83,North,360,1.0,2.0,97,0.06,,---,0.06,VWS V14.01,2013-06-07 05:14:00,
2013-06-07 01:19:00,68.6,67.7,29.82,ENE,57,0.0,1.0,97,0.04,,---,0.06,VWS V14.01,2013-06-07 05:19:00,
2013-06-07 01:24:00,68.6,67.7,29.82,ENE,76,0.0,2.0,97,0.04,,---,0.06,VWS V14.01,2013-06-07 05:24:00,
2013-06-07 01:29:00,68.5,67.6,29.82,ENE,57,0.0,2.0,97,0.04,,---,0.06,VWS V14.01,2013-06-07 05:29:00,
2013-06-07 01:34:00,68.5,67.6,29.81,NNE,26,0.0,3.0,97,0.02,,---,0.06,VWS V14.01,2013-06-07 05:34:00,
2013-06-07 01:39:00,68.5,67.6,29.81,NE,42,1.0,3.0,97,0.02,,---,0.06,VWS V14.01,2013-06-07 05:39:00,
2013-06-07 01:44:00,68.4,67.5,29.81,NE,44,0.0,3.0,97,0.03,,---,0.07,VWS V14.01,2013-06-07 05:44:00,
2013-06-07 01:49:00,68.5,67.6,29.80,East,88,0.0,2.0,97,0.02,,---,0.07,VWS V14.01,2013-06-07 05:49:00,
2013-06-07 01:55:00,68.4,67.5,29.79,North,355,0.0,6.0,97,0.02,,---,0.07,VWS V14.01,2013-06-07 05:55:00,
2013-06-07 02:00:00,68.4,67.5,29.79,ESE,103,0.0,6.0,97,0.02,,---,0.07,VWS V14.01,2013-06-07 06:00:00,
2013-06-07 02:05:00,68.3,67.4,29.79,ESE,103,0.0,3.0,97,0.01,,---,0.07,VWS V14.01,2013-06-07 06:05:00,
2013-06-07 02:10:00,68.3,67.4,29.78,ENE,61,0.0,3.0,97,0.02,,---,0.08,VWS V14.01,2013-06-07 06:10:00,
2013-06-07 02:16:00,68.3,67.4,29.78,NNE,15,1.0,1.0,97,0.02,,---,0.08,VWS V14.01,2013-06-07 06:16:00,
2013-06-07 02:21:00,68.3,67.4,29.78,ESE,117,0.0,3.0,97,0.02,,---,0.08,VWS V14.01,2013-06-07 06:21:00,
2013-06-07 02:26:00,68.2,67.3,29.78,ENE,71,0.0,3.0,97,0.02,,---,0.08,VWS V14.01,2013-06-07 06:26:00,
2013-06-07 02:31:00,68.2,67.3,29.78,NE,51,0.0,1.0,97,0.03,,---,0.09,VWS V14.01,2013-06-07 06:31:00,
2013-06-07 02:36:00,68.2,67.3,29.77,NNE,24,2.0,4.0,97,0.03,,---,0.09,VWS V14.01,2013-06-07 06:36:00,
2013-06-07 02:41:00,68.1,67.2,29.77,NNE,32,0.0,4.0,97,0.03,,---,0.09,VWS V14.01,2013-06-07 06:41:00,
2013-06-07 02:47:00,68.1,67.2,29.77,East,100,0.0,1.0,97,0.02,,---,0.09,VWS V14.01,2013-06-07 06:47:00,
2013-06-07 02:52:00,68.1,67.2,29.77,East,90,0.0,1.0,97,0.03,,---,0.10,VWS V14.01,2013-06-07 06:52:00,
2013-06-07 02:57:00,68.1,67.2,29.76,NE,55,0.0,3.0,97,0.03,,---,0.10,VWS V14.01,2013-06-07 06:57:00,
2013-06-07 03:02:00,68.0,67.4,29.76,East,85,0.0,1.0,98,0.04,,---,0.11,VWS V14.01,2013-06-07 07:02:00,
2013-06-07 03:07:00,68.1,67.5,29.76,ESE,103,0.0,3.0,98,0.04,,---,0.11,VWS V14.01,2013-06-07 07:07:00,
2013-06-07 03:12:00,68.0,67.4,29.76,ENE,68,1.0,3.0,98,0.04,,---,0.11,VWS V14.01,2013-06-07 07:12:00,
2013-06-07 03:17:00,68.0,67.4,29.75,East,81,0.0,1.0,98,0.04,,---,0.12,VWS V14.01,2013-06-07 07:17:00,
2013-06-07 03:23:00,68.0,67.4,29.75,NE,51,1.0,5.0,98,0.04,,---,0.12,VWS V14.01,2013-06-07 07:23:00,
2013-06-07 03:28:00,68.0,67.4,29.74,ESE,122,0.0,5.0,98,0.04,,---,0.12,VWS V14.01,2013-06-07 07:28:00,
2013-06-07 03:33:00,68.0,67.4,29.74,ENE,59,0.0,3.0,98,0.03,,---,0.12,VWS V14.01,2013-06-07 07:33:00,
2013-06-07 03:38:00,68.0,67.4,29.74,NE,46,0.0,7.0,98,0.03,,---,0.12,VWS V14.01,2013-06-07 07:38:00,
2013-06-07 03:43:00,68.0,67.4,29.73,North,351,0.0,7.0,98,0.03,,---,0.12,VWS V14.01,2013-06-07 07:43:00,
2013-06-07 03:48:00,68.0,67.4,29.73,ESE,122,3.0,3.0,98,0.03,,---,0.12,VWS V14.01,2013-06-07 07:48:00,
2013-06-07 03:53:00,67.9,67.3,29.73,NNE,14,0.0,5.0,98,0.03,,---,0.12,VWS V14.01,2013-06-07 07:53:00,
2013-06-07 03:58:00,67.9,67.3,29.73,ENE,61,2.0,5.0,98,0.03,,---,0.12,VWS V14.01,2013-06-07 07:58:00,
2013-06-07 04:03:00,67.9,67.3,29.73,NE,40,3.0,3.0,98,0.01,,---,0.12,VWS V14.01,2013-06-07 08:03:00,
2013-06-07 04:09:00,67.9,67.3,29.72,NNE,24,0.0,6.0,98,0.01,,---,0.12,VWS V14.01,2013-06-07 08:09:00,
2013-06-07 04:14:00,67.9,67.3,29.72,NNE,20,2.0,8.0,98,0.02,,---,0.13,VWS V14.01,2013-06-07 08:14:00,
2013-06-07 04:19:00,67.9,67.3,29.72,ENE,69,1.0,5.0,98,0.02,,---,0.13,VWS V14.01,2013-06-07 08:19:00,
2013-06-07 04:24:00,68.0,67.4,29.71,NNW,348,1.0,5.0,98,0.02,,---,0.13,VWS V14.01,2013-06-07 08:24:00,
2013-06-07 04:29:00,67.9,67.3,29.71,ENE,75,1.0,5.0,98,0.02,,---,0.13,VWS V14.01,2013-06-07 08:29:00,
2013-06-07 04:34:00,68.0,67.4,29.71,NE,44,1.0,3.0,98,0.02,,---,0.14,VWS V14.01,2013-06-07 08:34:00,
2013-06-07 04:39:00,67.9,67.3,29.71,NW,326,0.0,5.0,98,0.02,,---,0.14,VWS V14.01,2013-06-07 08:39:00,
2013-06-07 04:45:00,67.9,67.3,29.70,ENE,58,1.0,5.0,98,0.02,,---,0.14,VWS V14.01,2013-06-07 08:45:00,
2013-06-07 04:50:00,67.9,67.3,29.70,NE,51,1.0,7.0,98,0.02,,---,0.14,VWS V14.01,2013-06-07 08:50:00,
2013-06-07 04:55:00,67.9,67.3,29.70,East,99,1.0,7.0,98,0.02,,---,0.14,VWS V14.01,2013-06-07 08:55:00,
2013-06-07 05:00:00,67.9,67.3,29.70,ENE,63,0.0,7.0,98,0.02,,---,0.14,VWS V14.01,2013-06-07 09:00:00,
2013-06-07 05:05:00,67.9,67.3,29.70,East,97,0.0,3.0,98,0.02,,---,0.14,VWS V14.01,2013-06-07 09:05:00,
2013-06-07 05:10:00,67.9,67.3,29.70,NW,323,1.0,5.0,98,0.02,,---,0.14,VWS V14.01,2013-06-07 09:10:00,
2013-06-07 05:16:00,67.9,67.3,29.69,East,79,0.0,1.0,98,0.01,,---,0.14,VWS V14.01,2013-06-07 09:16:00,
2013-06-07 05:21:00,67.9,67.3,29.70,NE,55,0.0,2.0,98,0.01,,---,0.14,VWS V14.01,2013-06-07 09:21:00,
2013-06-07 05:26:00,67.9,67.3,29.70,NNE,20,0.0,2.0,98,0.01,,---,0.14,VWS V14.01,2013-06-07 09:26:00,
2013-06-07 05:31:00,67.9,67.3,29.70,NNE,28,0.0,4.0,98,0.01,,---,0.14,VWS V14.01,2013-06-07 09:31:00,
2013-06-07 05:36:00,67.9,67.3,29.70,ESE,107,1.0,6.0,98,0.01,,---,0.14,VWS V14.01,2013-06-07 09:36:00,
2013-06-07 05:41:00,67.9,67.3,29.70,NNE,26,1.0,6.0,98,0.01,,---,0.14,VWS V14.01,2013-06-07 09:41:00,
2013-06-07 05:46:00,67.9,67.3,29.70,NW,324,0.0,1.0,98,0.00,,---,0.14,VWS V14.01,2013-06-07 09:46:00,
2013-06-07 05:51:00,67.9,67.3,29.70,NNE,22,0.0,4.0,98,0.00,,---,0.14,VWS V14.01,2013-06-07 09:51:00,
2013-06-07 05:56:00,67.9,67.3,29.69,NNE,25,3.0,7.0,98,0.00,,---,0.14,VWS V14.01,2013-06-07 09:56:00,
2013-06-07 06:02:00,67.8,67.2,29.70,North,5,4.0,4.0,98,0.00,,---,0.14,VWS V14.01,2013-06-07 10:02:00,
2013-06-07 06:07:00,67.8,67.2,29.70,ESE,114,1.0,5.0,98,0.00,,---,0.14,VWS V14.01,2013-06-07 10:07:00,
2013-06-07 06:12:00,67.7,66.8,29.70,North,360,4.0,5.0,97,0.00,,---,0.14,VWS V14.01,2013-06-07 10:12:00,
2013-06-07 06:17:00,67.6,66.7,29.69,NE,49,2.0,4.0,97,0.00,,---,0.14,VWS V14.01,2013-06-07 10:17:00,
2013-06-07 06:22:00,67.6,66.7,29.69,ENE,74,0.0,5.0,97,0.00,,---,0.14,VWS V14.01,2013-06-07 10:22:00,
2013-06-07 06:27:00,67.6,66.7,29.69,ENE,58,1.0,5.0,97,0.00,,---,0.14,VWS V14.01,2013-06-07 10:27:00,
2013-06-07 06:32:00,67.7,66.8,29.69,NNW,341,3.0,6.0,97,0.00,,---,0.14,VWS V14.01,2013-06-07 10:32:00,
2013-06-07 06:37:00,67.8,67.2,29.68,NNE,32,0.0,6.0,98,0.00,,---,0.14,VWS V14.01,2013-06-07 10:37:00,
2013-06-07 06:43:00,67.9,67.3,29.68,NE,44,3.0,6.0,98,0.00,,---,0.14,VWS V14.01,2013-06-07 10:43:00,
2013-06-07 06:48:00,67.9,67.3,29.68,NNE,23,1.0,5.0,98,0.01,,---,0.15,VWS V14.01,2013-06-07 10:48:00,
2013-06-07 06:53:00,67.9,67.3,29.68,NNE,28,3.0,5.0,98,0.01,,---,0.15,VWS V14.01,2013-06-07 10:53:00,
2013-06-07 06:58:00,68.0,67.4,29.68,ENE,67,1.0,8.0,98,0.01,,---,0.15,VWS V14.01,2013-06-07 10:58:00,
2013-06-07 07:03:00,68.0,67.4,29.68,East,84,3.0,6.0,98,0.01,,---,0.15,VWS V14.01,2013-06-07 11:03:00,
2013-06-07 07:08:00,68.0,67.4,29.68,NNE,19,1.0,6.0,98,0.01,,---,0.15,VWS V14.01,2013-06-07 11:08:00,
2013-06-07 07:14:00,68.1,67.5,29.68,NNW,339,4.0,6.0,98,0.01,,---,0.15,VWS V14.01,2013-06-07 11:14:00,
2013-06-07 07:19:00,68.1,67.2,29.67,NNW,329,1.0,4.0,97,0.01,,---,0.15,VWS V14.01,2013-06-07 11:19:00,
2013-06-07 07:24:00,68.1,67.2,29.67,North,351,2.0,5.0,97,0.01,,---,0.15,VWS V14.01,2013-06-07 11:24:00,
2013-06-07 07:29:00,68.1,67.2,29.67,NNW,334,5.0,6.0,97,0.01,,---,0.15,VWS V14.01,2013-06-07 11:29:00,
2013-06-07 07:34:00,68.1,67.2,29.67,NW,319,1.0,4.0,97,0.01,,---,0.15,VWS V14.01,2013-06-07 11:34:00,
2013-06-07 07:39:00,68.2,67.3,29.67,NNW,345,4.0,5.0,97,0.01,,---,0.15,VWS V14.01,2013-06-07 11:39:00,
2013-06-07 07:44:00,68.2,67.3,29.66,NW,309,0.0,7.0,97,0.01,,---,0.15,VWS V14.01,2013-06-07 11:44:00,
2013-06-07 07:49:00,68.2,67.3,29.66,NE,43,1.0,9.0,97,0.01,,---,0.15,VWS V14.01,2013-06-07 11:49:00,
2013-06-07 07:54:00,68.4,67.5,29.66,North,5,1.0,9.0,97,0.01,,---,0.15,VWS V14.01,2013-06-07 11:54:00,
2013-06-07 08:00:00,68.5,67.9,29.66,East,99,3.0,9.0,98,0.01,,---,0.15,VWS V14.01,2013-06-07 12:00:00,
2013-06-07 08:05:00,68.4,67.5,29.66,NNW,345,1.0,9.0,97,0.00,,---,0.15,VWS V14.01,2013-06-07 12:05:00,
2013-06-07 08:10:00,68.4,67.5,29.66,NW,315,7.0,9.0,97,0.00,,---,0.15,VWS V14.01,2013-06-07 12:10:00,
2013-06-07 08:15:00,68.5,67.6,29.65,NNW,348,3.0,3.0,97,0.00,,---,0.15,VWS V14.01,2013-06-07 12:15:00,
2013-06-07 08:20:00,68.6,67.7,29.65,NW,304,2.0,11.0,97,0.00,,---,0.15,VWS V14.01,2013-06-07 12:20:00,
2013-06-07 08:26:00,68.7,67.8,29.65,North,9,1.0,11.0,97,0.00,,---,0.15,VWS V14.01,2013-06-07 12:26:00,
2013-06-07 08:31:00,68.9,68.0,29.65,NNE,21,2.0,8.0,97,0.00,,---,0.15,VWS V14.01,2013-06-07 12:31:00,
2013-06-07 08:36:00,68.8,67.9,29.66,NNW,332,1.0,8.0,97,0.00,,---,0.15,VWS V14.01,2013-06-07 12:36:00,
2013-06-07 08:41:00,68.9,68.0,29.66,NE,47,3.0,8.0,97,0.00,,---,0.15,VWS V14.01,2013-06-07 12:41:00,
2013-06-07 08:47:00,68.9,68.0,29.66,WNW,300,2.0,4.0,97,0.00,,---,0.15,VWS V14.01,2013-06-07 12:47:00,
2013-06-07 08:52:00,68.8,67.9,29.66,NNE,29,1.0,7.0,97,0.00,,---,0.15,VWS V14.01,2013-06-07 12:52:00,
2013-06-07 08:57:00,68.8,67.9,29.66,NNE,28,4.0,7.0,97,0.00,,---,0.15,VWS V14.01,2013-06-07 12:57:00,
2013-06-07 09:02:00,68.7,67.8,29.66,NNW,338,2.0,7.0,97,0.00,,---,0.15,VWS V14.01,2013-06-07 13:02:00,
2013-06-07 09:07:00,68.7,67.8,29.66,North,360,2.0,7.0,97,0.00,,---,0.15,VWS V14.01,2013-06-07 13:07:00,
2013-06-07 09:12:00,68.8,67.9,29.66,North,355,2.0,7.0,97,0.00,,---,0.15,VWS V14.01,2013-06-07 13:12:00,
2013-06-07 09:17:00,68.7,67.8,29.65,NNE,22,1.0,5.0,97,0.00,,---,0.15,VWS V14.01,2013-06-07 13:17:00,
2013-06-07 09:23:00,68.8,67.9,29.65,NW,323,2.0,6.0,97,0.00,,---,0.15,VWS V14.01,2013-06-07 13:23:00,
2013-06-07 09:28:00,68.8,67.9,29.66,North,355,5.0,6.0,97,0.00,,---,0.15,VWS V14.01,2013-06-07 13:28:00,
2013-06-07 09:33:00,68.9,68.0,29.65,NNE,18,3.0,7.0,97,0.00,,---,0.15,VWS V14.01,2013-06-07 13:33:00,
2013-06-07 09:38:00,68.8,67.9,29.65,East,80,1.0,8.0,97,0.00,,---,0.15,VWS V14.01,2013-06-07 13:38:00,
2013-06-07 09:43:00,69.0,68.1,29.65,North,349,1.0,8.0,97,0.01,,---,0.16,VWS V14.01,2013-06-07 13:43:00,
2013-06-07 09:48:00,69.1,68.2,29.65,WNW,299,2.0,7.0,97,0.01,,---,0.16,VWS V14.01,2013-06-07 13:48:00,
2013-06-07 09:53:00,69.2,68.3,29.65,NNW,330,5.0,10.0,97,0.01,,---,0.16,VWS V14.01,2013-06-07 13:53:00,
2013-06-07 09:59:00,69.2,68.3,29.65,NNW,333,2.0,10.0,97,0.01,,---,0.16,VWS V14.01,2013-06-07 13:59:00,
2013-06-07 10:04:00,69.3,68.4,29.65,NNE,22,2.0,7.0,97,0.01,,---,0.16,VWS V14.01,2013-06-07 14:04:00,
2013-06-07 10:09:00,69.3,68.4,29.65,NW,325,3.0,10.0,97,0.01,,---,0.16,VWS V14.01,2013-06-07 14:09:00,
2013-06-07 10:14:00,69.5,68.6,29.65,NNE,21,1.0,10.0,97,0.01,,---,0.16,VWS V14.01,2013-06-07 14:14:00,
2013-06-07 10:19:00,69.5,68.3,29.65,NW,316,2.0,8.0,96,0.01,,---,0.16,VWS V14.01,2013-06-07 14:19:00,
2013-06-07 10:25:00,69.3,68.1,29.65,North,355,6.0,8.0,96,0.01,,---,0.16,VWS V14.01,2013-06-07 14:25:00,
2013-06-07 10:30:00,69.3,68.4,29.65,NNE,13,6.0,8.0,97,0.01,,---,0.16,VWS V14.01,2013-06-07 14:30:00,
2013-06-07 10:35:00,69.3,68.4,29.65,NE,49,2.0,6.0,97,0.01,,---,0.16,VWS V14.01,2013-06-07 14:35:00,
2013-06-07 10:40:00,69.1,68.2,29.65,NNE,12,6.0,7.0,97,0.01,,---,0.16,VWS V14.01,2013-06-07 14:40:00,
2013-06-07 10:46:00,69.0,68.1,29.65,NNW,337,3.0,9.0,97,0.00,,---,0.16,VWS V14.01,2013-06-07 14:46:00,
2013-06-07 10:51:00,69.0,67.8,29.65,North,5,4.0,9.0,96,0.00,,---,0.16,VWS V14.01,2013-06-07 14:51:00,
2013-06-07 10:56:00,68.9,67.7,29.65,North,5,4.0,11.0,96,0.00,,---,0.16,VWS V14.01,2013-06-07 14:56:00,
2013-06-07 11:01:00,68.9,68.0,29.65,NNW,328,4.0,5.0,97,0.00,,---,0.16,VWS V14.01,2013-06-07 15:01:00,
2013-06-07 11:07:00,68.9,68.0,29.66,NW,321,2.0,8.0,97,0.00,,---,0.16,VWS V14.01,2013-06-07 15:07:00,
2013-06-07 11:12:00,68.9,68.0,29.66,North,355,5.0,8.0,97,0.00,,---,0.16,VWS V14.01,2013-06-07 15:12:00,
2013-06-07 11:17:00,68.9,68.0,29.66,NNW,333,6.0,8.0,97,0.00,,---,0.16,VWS V14.01,2013-06-07 15:17:00,
2013-06-07 11:22:00,68.8,67.9,29.66,North,355,6.0,11.0,97,0.01,,---,0.17,VWS V14.01,2013-06-07 15:22:00,
2013-06-07 11:27:00,68.7,67.8,29.66,NW,318,1.0,11.0,97,0.01,,---,0.17,VWS V14.01,2013-06-07 15:27:00,
2013-06-07 11:32:00,68.7,67.8,29.66,NNE,15,0.0,6.0,97,0.02,,---,0.18,VWS V14.01,2013-06-07 15:32:00,
2013-06-07 11:37:00,68.7,67.8,29.66,NNW,331,1.0,10.0,97,0.03,,---,0.19,VWS V14.01,2013-06-07 15:37:00,
2013-06-07 11:43:00,68.7,67.8,29.67,NW,323,1.0,10.0,97,0.04,,---,0.20,VWS V14.01,2013-06-07 15:43:00,
2013-06-07 11:48:00,68.7,67.8,29.67,North,355,4.0,8.0,97,0.04,,---,0.20,VWS V14.01,2013-06-07 15:48:00,
2013-06-07 11:53:00,68.7,67.8,29.67,North,5,4.0,8.0,97,0.05,,---,0.21,VWS V14.01,2013-06-07 15:53:00,
2013-06-07 11:58:00,68.8,67.9,29.67,North,351,5.0,10.0,97,0.06,,---,0.22,VWS V14.01,2013-06-07 15:58:00,
2013-06-07 12:04:00,68.9,68.0,29.67,WNW,292,6.0,8.0,97,0.06,,---,0.22,VWS V14.01,2013-06-07 16:04:00,
2013-06-07 12:09:00,69.0,68.1,29.67,NW,315,1.0,8.0,97,0.06,,---,0.22,VWS V14.01,2013-06-07 16:09:00,
2013-06-07 12:14:00,69.0,68.1,29.67,NNW,338,2.0,9.0,97,0.06,,---,0.22,VWS V14.01,2013-06-07 16:14:00,
2013-06-07 12:20:00,69.2,68.3,29.67,North,355,2.0,6.0,97,0.06,,---,0.22,VWS V14.01,2013-06-07 16:20:00,
2013-06-07 12:25:00,69.4,68.5,29.67,NNW,339,1.0,7.0,97,0.06,,---,0.22,VWS V14.01,2013-06-07 16:25:00,
2013-06-07 12:30:00,69.4,68.5,29.67,NW,315,6.0,7.0,97,0.06,,---,0.22,VWS V14.01,2013-06-07 16:30:00,
2013-06-07 12:35:00,69.5,68.6,29.68,NW,313,3.0,8.0,97,0.04,,---,0.22,VWS V14.01,2013-06-07 16:35:00,
2013-06-07 12:40:00,69.7,68.8,29.68,NW,304,2.0,8.0,97,0.04,,---,0.22,VWS V14.01,2013-06-07 16:40:00,
2013-06-07 12:45:00,70.0,69.1,29.68,North,350,1.0,2.0,97,0.02,,---,0.22,VWS V14.01,2013-06-07 16:45:00,
2013-06-07 12:51:00,70.4,69.5,29.68,NNW,330,1.0,8.0,97,0.02,,---,0.22,VWS V14.01,2013-06-07 16:51:00,
2013-06-07 12:56:00,70.9,69.7,29.68,NNW,340,0.0,8.0,96,0.02,,---,0.22,VWS V14.01,2013-06-07 16:56:00,
2013-06-07 13:01:00,71.1,69.9,29.69,NW,306,6.0,7.0,96,0.00,,---,0.22,VWS V14.01,2013-06-07 17:01:00,
2013-06-07 13:06:00,71.3,70.1,29.69,NNW,340,3.0,7.0,96,0.00,,---,0.22,VWS V14.01,2013-06-07 17:06:00,
2013-06-07 13:11:00,71.6,70.1,29.69,NNW,330,4.0,8.0,95,0.00,,---,0.22,VWS V14.01,2013-06-07 17:11:00,
2013-06-07 13:17:00,72.0,70.5,29.69,NNW,329,6.0,9.0,95,0.00,,---,0.22,VWS V14.01,2013-06-07 17:17:00,
2013-06-07 13:22:00,72.4,70.9,29.69,NNW,331,4.0,9.0,95,0.00,,---,0.22,VWS V14.01,2013-06-07 17:22:00,
2013-06-07 13:27:00,72.6,70.8,29.69,NNW,346,2.0,9.0,94,0.00,,---,0.22,VWS V14.01,2013-06-07 17:27:00,
2013-06-07 13:32:00,72.9,71.1,29.70,NW,317,1.0,4.0,94,0.00,,---,0.22,VWS V14.01,2013-06-07 17:32:00,
2013-06-07 13:38:00,73.3,71.2,29.69,NW,313,4.0,7.0,93,0.00,,---,0.22,VWS V14.01,2013-06-07 17:38:00,
2013-06-07 13:43:00,73.6,71.5,29.70,NNW,348,2.0,7.0,93,0.00,,---,0.22,VWS V14.01,2013-06-07 17:43:00,
2013-06-07 13:48:00,73.7,71.2,29.70,NW,315,8.0,8.0,92,0.00,,---,0.22,VWS V14.01,2013-06-07 17:48:00,
2013-06-07 13:53:00,73.6,70.8,29.70,NW,304,4.0,8.0,91,0.00,,---,0.22,VWS V14.01,2013-06-07 17:53:00,
2013-06-07 13:59:00,73.6,70.2,29.71,West,276,1.0,9.0,89,0.00,,---,0.22,VWS V14.01,2013-06-07 17:59:00,
2013-06-07 14:05:00,74.1,71.0,29.71,NNE,19,1.0,7.0,90,0.00,,---,0.22,VWS V14.01,2013-06-07 18:05:00,
2013-06-07 14:10:00,74.8,71.7,29.71,NW,315,1.0,7.0,90,0.00,,---,0.22,VWS V14.01,2013-06-07 18:10:00,
2013-06-07 14:16:00,75.2,71.1,29.71,North,351,1.0,6.0,87,0.00,,---,0.22,VWS V14.01,2013-06-07 18:16:00,
2013-06-07 14:21:00,75.8,72.0,29.71,WNW,288,1.0,7.0,88,0.00,,---,0.22,VWS V14.01,2013-06-07 18:21:00,
2013-06-07 14:27:00,76.2,71.4,29.71,NW,317,1.0,7.0,85,0.00,,---,0.22,VWS V14.01,2013-06-07 18:27:00,
2013-06-07 14:32:00,76.4,71.9,29.71,NW,304,0.0,7.0,86,0.00,,---,0.22,VWS V14.01,2013-06-07 18:32:00,
2013-06-07 14:37:00,77.4,72.9,29.71,WNW,300,1.0,7.0,86,0.00,,---,0.22,VWS V14.01,2013-06-07 18:37:00,
2013-06-07 14:42:00,77.5,72.3,29.71,NW,323,1.0,7.0,84,0.00,,---,0.22,VWS V14.01,2013-06-07 18:42:00,
2013-06-07 14:48:00,78.0,72.8,29.71,NW,313,1.0,4.0,84,0.00,,---,0.22,VWS V14.01,2013-06-07 18:48:00,
2013-06-07 14:55:00,77.7,71.8,29.71,WNW,288,2.0,6.0,82,0.00,,---,0.22,VWS V14.01,2013-06-07 18:55:00,
2013-06-07 15:00:00,76.9,70.6,29.71,NW,323,1.0,6.0,81,0.00,,---,0.22,VWS V14.01,2013-06-07 19:00:00,
2013-06-07 15:05:00,76.6,71.1,29.71,WNW,284,2.0,4.0,83,0.00,,---,0.22,VWS V14.01,2013-06-07 19:05:00,
2013-06-07 15:10:00,76.2,70.7,29.71,NW,318,2.0,6.0,83,0.00,,---,0.22,VWS V14.01,2013-06-07 19:10:00,
2013-06-07 15:16:00,76.0,71.2,29.71,NW,321,0.0,0.0,85,0.00,,---,0.22,VWS V14.01,2013-06-07 19:16:00,
2013-06-07 15:21:00,76.1,71.3,29.72,NNW,334,0.0,4.0,85,0.00,,---,0.22,VWS V14.01,2013-06-07 19:21:00,
2013-06-07 15:27:00,75.9,71.1,29.72,WNW,286,5.0,6.0,85,0.00,,---,0.22,VWS V14.01,2013-06-07 19:27:00,
2013-06-07 15:33:00,75.0,71.2,29.72,NW,305,0.0,5.0,88,0.03,,---,0.25,VWS V14.01,2013-06-07 19:33:00,
2013-06-07 15:38:00,74.3,71.2,29.72,SSW,208,2.0,5.0,90,0.06,,---,0.28,VWS V14.01,2013-06-07 19:38:00,
2013-06-07 15:43:00,73.8,71.3,29.72,WSW,248,0.0,5.0,92,0.07,,---,0.29,VWS V14.01,2013-06-07 19:43:00,
2013-06-07 15:48:00,74.0,71.8,29.72,West,264,1.0,3.0,93,0.07,,---,0.29,VWS V14.01,2013-06-07 19:48:00,
2013-06-07 15:54:00,74.3,71.8,29.72,West,279,0.0,3.0,92,0.07,,---,0.29,VWS V14.01,2013-06-07 19:54:00,
2013-06-07 16:00:00,74.8,72.6,29.72,WSW,246,0.0,1.0,93,0.07,,---,0.29,VWS V14.01,2013-06-07 20:00:00,
2013-06-07 16:05:00,75.8,73.6,29.72,NW,309,0.0,2.0,93,0.07,,---,0.29,VWS V14.01,2013-06-07 20:05:00,
2013-06-07 16:11:00,75.7,72.9,29.72,South,183,0.0,5.0,91,0.07,,---,0.29,VWS V14.01,2013-06-07 20:11:00,
2013-06-07 16:16:00,75.3,72.5,29.72,WSW,254,0.0,2.0,91,0.07,,---,0.29,VWS V14.01,2013-06-07 20:16:00,
2013-06-07 16:21:00,75.5,73.3,29.72,WSW,246,0.0,2.0,93,0.07,,---,0.29,VWS V14.01,2013-06-07 20:21:00,
2013-06-07 16:27:00,76.0,73.8,29.72,WSW,247,0.0,4.0,93,0.07,,---,0.29,VWS V14.01,2013-06-07 20:27:00,
2013-06-07 16:33:00,77.1,74.3,29.72,WSW,240,1.0,5.0,91,0.06,,---,0.29,VWS V14.01,2013-06-07 20:33:00,
2013-06-07 16:38:00,78.3,74.5,29.72,NW,305,0.0,5.0,88,0.06,,---,0.29,VWS V14.01,2013-06-07 20:38:00,
2013-06-07 16:43:00,78.3,73.4,29.72,NW,305,3.0,7.0,85,0.06,,---,0.29,VWS V14.01,2013-06-07 20:43:00,
2013-06-07 16:49:00,78.6,74.1,29.72,WNW,294,2.0,5.0,86,0.00,,---,0.29,VWS V14.01,2013-06-07 20:49:00,
2013-06-07 16:56:00,79.0,73.4,29.73,SSW,208,0.0,7.0,83,0.00,,---,0.29,VWS V14.01,2013-06-07 20:56:00,
2013-06-07 17:02:00,79.1,73.1,29.73,WNW,290,2.0,6.0,82,0.00,,---,0.29,VWS V14.01,2013-06-07 21:02:00,
2013-06-07 17:07:00,79.2,72.9,29.73,NW,311,3.0,7.0,81,0.00,,---,0.29,VWS V14.01,2013-06-07 21:07:00,
2013-06-07 17:12:00,79.1,72.8,29.73,WSW,257,1.0,7.0,81,0.00,,---,0.29,VWS V14.01,2013-06-07 21:12:00,
2013-06-07 17:17:00,79.1,72.4,29.73,WSW,256,3.0,8.0,80,0.00,,---,0.29,VWS V14.01,2013-06-07 21:17:00,
2013-06-07 17:25:00,78.8,71.7,29.74,WNW,290,2.0,9.0,79,0.00,,---,0.29,VWS V14.01,2013-06-07 21:25:00,
2013-06-07 17:30:00,78.5,71.8,29.74,NNW,330,1.0,9.0,80,0.00,,---,0.29,VWS V14.01,2013-06-07 21:30:00,
2013-06-07 17:35:00,78.8,72.1,29.74,WSW,240,6.0,6.0,80,0.00,,---,0.29,VWS V14.01,2013-06-07 21:35:00,
2013-06-07 17:41:00,79.1,73.1,29.74,WNW,298,1.0,7.0,82,0.00,,---,0.29,VWS V14.01,2013-06-07 21:41:00,
2013-06-07 17:46:00,79.4,72.7,29.74,South,179,6.0,6.0,80,0.00,,---,0.29,VWS V14.01,2013-06-07 21:46:00,
2013-06-07 17:52:00,79.4,73.1,29.74,NW,325,0.0,8.0,81,0.00,,---,0.29,VWS V14.01,2013-06-07 21:52:00,
2013-06-07 17:57:00,79.5,72.8,29.74,WSW,257,1.0,8.0,80,0.00,,---,0.29,VWS V14.01,2013-06-07 21:57:00,
2013-06-07 18:02:00,79.4,72.7,29.74,NE,38,1.0,5.0,80,0.00,,---,0.29,VWS V14.01,2013-06-07 22:02:00,
2013-06-07 18:08:00,79.4,72.3,29.74,NW,323,1.0,6.0,79,0.00,,---,0.29,VWS V14.01,2013-06-07 22:08:00,
2013-06-07 18:13:00,79.6,72.9,29.74,WNW,298,1.0,6.0,80,0.00,,---,0.29,VWS V14.01,2013-06-07 22:13:00,
2013-06-07 18:18:00,79.6,72.5,29.74,South,178,0.0,8.0,79,0.00,,---,0.29,VWS V14.01,2013-06-07 22:18:00,
2013-06-07 18:28:00,79.5,72.4,29.74,SSW,199,7.0,8.0,79,0.00,,---,0.29,VWS V14.01,2013-06-07 22:28:00,
2013-06-07 18:33:00,79.4,71.9,29.75,SSW,200,1.0,6.0,78,0.00,,---,0.29,VWS V14.01,2013-06-07 22:33:00,
2013-06-07 18:38:00,79.3,72.2,29.75,SW,219,1.0,7.0,79,0.00,,---,0.29,VWS V14.01,2013-06-07 22:38:00,
2013-06-07 18:43:00,79.2,72.1,29.75,SW,226,2.0,7.0,79,0.00,,---,0.29,VWS V14.01,2013-06-07 22:43:00,
2013-06-07 18:50:00,79.0,71.9,29.75,SW,226,4.0,6.0,79,0.00,,---,0.29,VWS V14.01,2013-06-07 22:50:00,
2013-06-07 18:56:00,78.9,72.2,29.75,NW,308,4.0,8.0,80,0.00,,---,0.29,VWS V14.01,2013-06-07 22:56:00,
2013-06-07 19:01:00,78.9,72.6,29.75,South,178,0.0,1.0,81,0.00,,---,0.29,VWS V14.01,2013-06-07 23:01:00,
2013-06-07 19:06:00,78.8,71.7,29.76,SSW,198,4.0,7.0,79,0.00,,---,0.29,VWS V14.01,2013-06-07 23:06:00,
2013-06-07 19:13:00,78.7,72.0,29.76,SSE,164,2.0,9.0,80,0.00,,---,0.29,VWS V14.01,2013-06-07 23:13:00,
2013-06-07 19:18:00,78.4,71.7,29.76,West,269,0.0,7.0,80,0.00,,---,0.29,VWS V14.01,2013-06-07 23:18:00,
2013-06-07 19:23:00,78.0,71.7,29.76,WSW,245,2.0,7.0,81,0.00,,---,0.29,VWS V14.01,2013-06-07 23:23:00,
2013-06-07 19:28:00,77.7,71.8,29.77,SW,234,4.0,7.0,82,0.00,,---,0.29,VWS V14.01,2013-06-07 23:28:00,
2013-06-07 19:34:00,77.5,71.6,29.77,SSE,155,1.0,3.0,82,0.00,,---,0.29,VWS V14.01,2013-06-07 23:34:00,
2013-06-07 19:39:00,77.4,71.8,29.78,West,265,0.0,5.0,83,0.00,,---,0.29,VWS V14.01,2013-06-07 23:39:00,
2013-06-07 19:45:00,77.1,71.5,29.78,SSW,199,2.0,5.0,83,0.00,,---,0.29,VWS V14.01,2013-06-07 23:45:00,
2013-06-07 19:51:00,77.0,71.8,29.78,South,186,0.0,4.0,84,0.00,,---,0.29,VWS V14.01,2013-06-07 23:51:00,
2013-06-07 19:56:00,76.9,71.7,29.79,SW,216,1.0,4.0,84,0.00,,---,0.29,VWS V14.01,2013-06-07 23:56:00,
2013-06-07 20:01:00,76.7,71.5,29.78,SW,229,0.0,1.0,84,0.00,,---,0.29,VWS V14.01,2013-06-08 00:01:00,
2013-06-07 20:06:00,76.6,71.4,29.79,SSW,196,1.0,2.0,84,0.00,,---,0.29,VWS V14.01,2013-06-08 00:06:00,
2013-06-07 20:11:00,76.4,71.6,29.79,SW,215,0.0,2.0,85,0.00,,---,0.29,VWS V14.01,2013-06-08 00:11:00,
2013-06-07 20:17:00,76.0,71.2,29.79,SW,214,0.0,1.0,85,0.00,,---,0.29,VWS V14.01,2013-06-08 00:17:00,
2013-06-07 20:22:00,75.7,71.2,29.80,WSW,252,1.0,2.0,86,0.00,,---,0.29,VWS V14.01,2013-06-08 00:22:00,
2013-06-07 20:27:00,75.6,71.5,29.83,NW,323,3.0,8.0,87,0.00,,---,0.29,VWS V14.01,2013-06-08 00:27:00,
2013-06-07 20:33:00,74.9,67.9,29.83,WNW,301,8.0,15.0,79,0.00,,---,0.29,VWS V14.01,2013-06-08 00:33:00,
2013-06-07 20:38:00,73.7,66.8,29.84,NW,304,6.0,17.0,79,0.00,,---,0.29,VWS V14.01,2013-06-08 00:38:00,
2013-06-07 20:43:00,72.8,66.3,29.84,North,360,4.0,17.0,80,0.00,,---,0.29,VWS V14.01,2013-06-08 00:43:00,
2013-06-07 20:48:00,72.1,66.3,29.84,NW,323,2.0,9.0,82,0.00,,---,0.29,VWS V14.01,2013-06-08 00:48:00,
2013-06-07 20:54:00,71.2,66.1,29.85,NW,311,0.0,9.0,84,0.01,,---,0.30,VWS V14.01,2013-06-08 00:54:00,
2013-06-07 20:59:00,70.5,66.1,29.85,WNW,298,1.0,9.0,86,0.02,,---,0.31,VWS V14.01,2013-06-08 00:59:00,
2013-06-07 21:04:00,70.1,66.4,29.85,WNW,296,0.0,1.0,88,0.04,,---,0.33,VWS V14.01,2013-06-08 01:04:00,
2013-06-07 21:09:00,69.8,66.4,29.85,WNW,295,0.0,1.0,89,0.05,,---,0.34,VWS V14.01,2013-06-08 01:09:00,
2013-06-07 21:14:00,69.5,66.4,29.85,WNW,291,0.0,1.0,90,0.06,,---,0.35,VWS V14.01,2013-06-08 01:14:00,
2013-06-07 21:19:00,69.2,66.5,29.85,WNW,291,0.0,0.0,91,0.06,,---,0.35,VWS V14.01,2013-06-08 01:19:00,
2013-06-07 21:25:00,69.1,66.7,29.85,WNW,291,0.0,0.0,92,0.07,,---,0.36,VWS V14.01,2013-06-08 01:25:00,
2013-06-07 21:31:00,68.9,66.8,29.85,WNW,284,1.0,1.0,93,0.07,,---,0.36,VWS V14.01,2013-06-08 01:31:00,
2013-06-07 21:36:00,68.7,66.6,29.84,ENE,78,1.0,2.0,93,0.07,,---,0.36,VWS V14.01,2013-06-08 01:36:00,
2013-06-07 21:41:00,68.5,66.4,29.84,ESE,119,0.0,2.0,93,0.07,,---,0.36,VWS V14.01,2013-06-08 01:41:00,
2013-06-07 21:47:00,68.1,66.3,29.84,SE,146,0.0,1.0,94,0.07,,---,0.36,VWS V14.01,2013-06-08 01:47:00,
2013-06-07 21:52:00,67.9,66.1,29.84,SE,146,0.0,1.0,94,0.07,,---,0.36,VWS V14.01,2013-06-08 01:52:00,
2013-06-07 21:57:00,67.7,65.9,29.84,SSE,148,1.0,2.0,94,0.07,,---,0.36,VWS V14.01,2013-06-08 01:57:00,
2013-06-07 22:02:00,67.5,65.7,29.84,SSE,148,0.0,0.0,94,0.04,,---,0.36,VWS V14.01,2013-06-08 02:02:00,
2013-06-07 22:08:00,67.4,65.9,29.85,SSE,148,0.0,0.0,95,0.04,,---,0.36,VWS V14.01,2013-06-08 02:08:00,
2013-06-07 22:13:00,67.4,65.9,29.85,SSE,148,0.0,0.0,95,0.04,,---,0.36,VWS V14.01,2013-06-08 02:13:00,
2013-06-07 22:19:00,67.4,65.9,29.84,SSE,148,0.0,0.0,95,0.01,,---,0.36,VWS V14.01,2013-06-08 02:19:00,
2013-06-07 22:25:00,67.4,65.9,29.85,SSE,148,0.0,1.0,95,0.01,,---,0.36,VWS V14.01,2013-06-08 02:25:00,
2013-06-07 22:30:00,67.4,65.9,29.85,SSE,148,0.0,0.0,95,0.00,,---,0.36,VWS V14.01,2013-06-08 02:30:00,
2013-06-07 22:35:00,67.4,65.9,29.85,SSE,148,0.0,0.0,95,0.00,,---,0.36,VWS V14.01,2013-06-08 02:35:00,
2013-06-07 22:41:00,67.5,66.3,29.86,NW,323,2.0,3.0,96,0.00,,---,0.36,VWS V14.01,2013-06-08 02:41:00,
2013-06-07 22:47:00,67.6,66.4,29.87,NW,317,2.0,7.0,96,0.00,,---,0.36,VWS V14.01,2013-06-08 02:47:00,
2013-06-07 22:52:00,67.6,66.4,29.88,NNW,327,1.0,7.0,96,0.00,,---,0.36,VWS V14.01,2013-06-08 02:52:00,
2013-06-07 22:57:00,67.6,66.4,29.88,NNW,340,1.0,7.0,96,0.00,,---,0.36,VWS V14.01,2013-06-08 02:57:00,
2013-06-07 23:03:00,67.7,66.5,29.88,NNW,346,4.0,6.0,96,0.00,,---,0.36,VWS V14.01,2013-06-08 03:03:00,
2013-06-07 23:08:00,67.7,66.5,29.87,NNE,17,0.0,9.0,96,0.00,,---,0.36,VWS V14.01,2013-06-08 03:08:00,
2013-06-07 23:13:00,67.6,66.1,29.88,NNE,24,0.0,9.0,95,0.00,,---,0.36,VWS V14.01,2013-06-08 03:13:00,
2013-06-07 23:20:00,67.6,66.1,29.88,NNE,24,0.0,1.0,95,0.00,,---,0.36,VWS V14.01,2013-06-08 03:20:00,
2013-06-07 23:25:00,67.7,66.2,29.89,NNE,19,0.0,1.0,95,0.03,,---,0.39,VWS V14.01,2013-06-08 03:25:00,
2013-06-07 23:30:00,67.7,66.2,29.90,NNW,333,2.0,5.0,95,0.09,,---,0.45,VWS V14.01,2013-06-08 03:30:00,
2013-06-07 23:35:00,67.7,66.5,29.89,NW,309,2.0,5.0,96,0.22,,---,0.58,VWS V14.01,2013-06-08 03:35:00,
2013-06-07 23:43:00,67.6,66.4,29.89,WNW,300,0.0,5.0,96,0.32,,---,0.68,VWS V14.01,2013-06-08 03:43:00,
2013-06-07 23:48:00,67.7,66.5,29.88,NW,315,0.0,0.0,96,0.34,,---,0.70,VWS V14.01,2013-06-08 03:48:00,
2013-06-07 23:53:00,67.8,66.6,29.88,North,355,1.0,3.0,96,0.36,,---,0.72,VWS V14.01,2013-06-08 03:53:00,
2013-06-07 23:58:00,67.7,66.5,29.88,ESE,117,0.0,3.0,96,0.39,,---,0.75,VWS V14.01,2013-06-08 03:58:00,